createdAt,value
2018-04-25T00:00:16.325Z,87.1
2018-04-25T00:01:16.358Z,87.1
2018-04-25T00:02:16.629Z,87.2
2018-04-25T00:03:16.904Z,86.5
2018-04-25T00:04:17.158Z,86.7
2018-04-25T00:05:16.411Z,86.3
2018-04-25T00:06:16.674Z,86.5
2018-04-25T00:07:16.929Z,86.5
2018-04-25T00:08:17.191Z,86.5
2018-04-25T00:09:16.452Z,86.7
2018-04-25T00:10:16.724Z,86.9
2018-04-25T00:11:16.771Z,87.0
2018-04-25T00:12:17.043Z,86.9
2018-04-25T00:13:16.313Z,87.0
2018-04-25T00:14:16.575Z,87.0
2018-04-25T00:15:16.848Z,87.1
2018-04-25T00:16:17.110Z,87.1
2018-04-25T00:17:16.371Z,87.2
2018-04-25T00:18:16.637Z,87.2
2018-04-25T00:19:16.909Z,87.0
2018-04-25T00:20:17.187Z,87.0
2018-04-25T00:21:17.220Z,86.5
2018-04-25T00:22:16.483Z,86.4
2018-04-25T00:23:16.750Z,86.2
2018-04-25T00:24:17.164Z,86.5
2018-04-25T00:25:16.449Z,86.7
2018-04-25T00:26:16.720Z,86.8
2018-04-25T00:27:16.976Z,86.9
2018-04-25T00:28:17.256Z,87.0
2018-04-25T00:29:16.522Z,87.2
2018-04-25T00:30:16.788Z,87.1
2018-04-25T00:31:16.847Z,87.2
2018-04-25T00:32:17.123Z,87.2
2018-04-25T00:33:16.390Z,87.3
2018-04-25T00:34:16.654Z,87.8
2018-04-25T00:35:16.922Z,88.0
2018-04-25T00:36:17.190Z,88.0
2018-04-25T00:37:16.450Z,88.1
2018-04-25T00:38:16.706Z,88.2
2018-04-25T00:39:16.965Z,88.3
2018-04-25T00:40:17.234Z,88.3
2018-04-25T00:41:17.286Z,88.3
2018-04-25T00:42:16.555Z,88.2
2018-04-25T00:43:16.809Z,88.2
2018-04-25T00:44:17.071Z,88.2
2018-04-25T00:45:16.331Z,88.2
2018-04-25T00:46:16.595Z,88.0
2018-04-25T00:47:16.870Z,88.0
2018-04-25T00:48:17.138Z,88.0
2018-04-25T00:49:16.392Z,88.1
2018-04-25T00:50:16.660Z,88.1
2018-04-25T00:51:16.698Z,88.0
2018-04-25T00:52:16.957Z,88.1
2018-04-25T00:53:17.221Z,88.1
2018-04-25T00:54:16.488Z,88.1
2018-04-25T00:55:16.747Z,87.8
2018-04-25T00:56:17.035Z,87.8
2018-04-25T00:57:16.307Z,87.5
2018-04-25T00:58:16.565Z,87.7
2018-04-25T00:59:16.836Z,87.8
2018-04-25T01:00:17.108Z,88.0
2018-04-25T01:01:17.151Z,88.0
2018-04-25T01:02:16.409Z,88.0
2018-04-25T01:03:16.661Z,88.1
2018-04-25T01:04:16.917Z,88.2
2018-04-25T01:05:17.184Z,88.0
2018-04-25T01:06:16.442Z,88.2
2018-04-25T01:07:16.705Z,88.2
2018-04-25T01:08:16.967Z,88.2
2018-04-25T01:09:17.982Z,88.2
2018-04-25T01:10:17.247Z,88.3
2018-04-25T01:11:16.293Z,88.3
2018-04-25T01:12:16.561Z,88.5
2018-04-25T01:13:16.827Z,88.7
2018-04-25T01:14:17.378Z,88.8
2018-04-25T01:15:16.640Z,88.8
2018-04-25T01:16:16.903Z,88.8
2018-04-25T01:17:17.177Z,88.8
2018-04-25T01:18:16.435Z,88.8
2018-04-25T01:19:16.703Z,88.9
2018-04-25T01:20:16.980Z,89.0
2018-04-25T01:21:17.017Z,89.0
2018-04-25T01:22:17.277Z,89.2
2018-04-25T01:23:16.535Z,89.2
2018-04-25T01:24:16.800Z,89.0
2018-04-25T01:25:17.063Z,89.2
2018-04-25T01:26:16.319Z,89.2
2018-04-25T01:27:16.584Z,89.2
2018-04-25T01:28:16.859Z,89.0
2018-04-25T01:29:17.126Z,89.0
2018-04-25T01:30:16.398Z,88.9
2018-04-25T01:31:16.438Z,88.8
2018-04-25T01:32:16.700Z,88.7
2018-04-25T01:33:16.955Z,88.8
2018-04-25T01:34:17.232Z,88.8
2018-04-25T01:35:16.492Z,88.9
2018-04-25T01:36:16.783Z,88.8
2018-04-25T01:37:17.041Z,88.8
2018-04-25T01:38:16.306Z,89.0
2018-04-25T01:39:16.568Z,88.7
2018-04-25T01:40:16.848Z,88.7
2018-04-25T01:41:16.893Z,88.8
2018-04-25T01:42:17.159Z,88.7
2018-04-25T01:43:16.428Z,88.8
2018-04-25T01:44:16.686Z,89.0
2018-04-25T01:45:16.952Z,89.0
2018-04-25T01:46:17.215Z,88.8
2018-04-25T01:47:16.475Z,88.5
2018-04-25T01:48:16.737Z,88.3
2018-04-25T01:49:17.003Z,88.3
2018-04-25T01:50:17.274Z,88.0
2018-04-25T01:51:16.307Z,88.2
2018-04-25T01:52:16.575Z,88.3
2018-04-25T01:53:16.835Z,88.3
2018-04-25T01:54:17.099Z,88.5
2018-04-25T01:55:16.362Z,88.6
2018-04-25T01:56:16.622Z,88.5
2018-04-25T01:57:16.886Z,88.2
2018-04-25T01:58:17.151Z,88.5
2018-04-25T01:59:16.408Z,88.5
2018-04-25T02:00:16.693Z,88.2
2018-04-25T02:01:16.701Z,88.2
2018-04-25T02:02:16.970Z,88.2
2018-04-25T02:03:17.258Z,88.5
2018-04-25T02:04:16.529Z,88.9
2018-04-25T02:05:16.802Z,89.0
2018-04-25T02:06:17.065Z,89.0
2018-04-25T02:07:16.331Z,88.5
2018-04-25T02:08:16.602Z,88.4
2018-04-25T02:09:16.877Z,88.0
2018-04-25T02:10:17.159Z,88.4
2018-04-25T02:11:17.181Z,88.3
2018-04-25T02:12:16.444Z,88.2
2018-04-25T02:13:16.703Z,88.2
2018-04-25T02:14:16.964Z,88.2
2018-04-25T02:15:17.232Z,88.2
2018-04-25T02:16:16.499Z,88.0
2018-04-25T02:17:16.767Z,88.5
2018-04-25T02:18:17.031Z,88.3
2018-04-25T02:19:16.293Z,88.8
2018-04-25T02:20:16.567Z,88.5
2018-04-25T02:21:16.617Z,88.2
2018-04-25T02:22:16.896Z,88.2
2018-04-25T02:23:17.152Z,88.7
2018-04-25T02:24:16.419Z,88.2
2018-04-25T02:25:16.676Z,88.5
2018-04-25T02:26:16.946Z,88.0
2018-04-25T02:27:17.211Z,88.1
2018-04-25T02:28:16.475Z,88.4
2018-04-25T02:29:16.745Z,88.4
2018-04-25T02:30:17.015Z,88.3
2018-04-25T02:31:17.057Z,88.5
2018-04-25T02:32:16.318Z,89.2
2018-04-25T02:33:16.582Z,89.2
2018-04-25T02:34:16.847Z,89.2
2018-04-25T02:35:17.123Z,89.5
2018-04-25T02:36:16.397Z,89.5
2018-04-25T02:37:16.647Z,89.6
2018-04-25T02:38:16.909Z,89.5
2018-04-25T02:39:17.358Z,89.7
2018-04-25T02:40:16.643Z,89.3
2018-04-25T02:41:16.687Z,89.2
2018-04-25T02:42:16.952Z,89.3
2018-04-25T02:43:17.303Z,89.2
2018-04-25T02:44:16.582Z,89.2
2018-04-25T02:45:16.860Z,89.2
2018-04-25T02:46:17.129Z,89.8
2018-04-25T02:47:16.396Z,89.4
2018-04-25T02:48:16.653Z,89.0
2018-04-25T02:49:16.965Z,90.4
2018-04-25T02:50:17.229Z,90.5
2018-04-25T02:51:17.271Z,89.8
2018-04-25T02:52:16.537Z,89.4
2018-04-25T02:53:16.802Z,89.3
2018-04-25T02:54:17.084Z,89.3
2018-04-25T02:55:16.353Z,89.0
2018-04-25T02:56:16.620Z,89.1
2018-04-25T02:57:16.886Z,88.8
2018-04-25T02:58:17.155Z,88.6
2018-04-25T02:59:16.422Z,88.5
2018-04-25T03:00:16.684Z,88.8
2018-04-25T03:01:16.745Z,89.0
2018-04-25T03:02:17.001Z,89.1
2018-04-25T03:03:17.277Z,89.2
2018-04-25T03:04:16.544Z,89.3
2018-04-25T03:05:16.805Z,89.4
2018-04-25T03:06:17.146Z,89.2
2018-04-25T03:07:16.406Z,89.3
2018-04-25T03:08:16.685Z,89.4
2018-04-25T03:09:16.958Z,89.5
2018-04-25T03:10:17.237Z,89.5
2018-04-25T03:11:17.266Z,89.8
2018-04-25T03:12:16.526Z,89.7
2018-04-25T03:13:16.790Z,89.7
2018-04-25T03:14:17.052Z,89.8
2018-04-25T03:15:16.324Z,89.8
2018-04-25T03:16:16.587Z,89.8
2018-04-25T03:17:16.848Z,90.0
2018-04-25T03:18:17.112Z,89.2
2018-04-25T03:19:16.379Z,89.1
2018-04-25T03:20:16.651Z,89.2
2018-04-25T03:21:16.676Z,89.2
2018-04-25T03:22:16.941Z,89.3
2018-04-25T03:23:17.213Z,89.2
2018-04-25T03:24:16.478Z,89.2
2018-04-25T03:25:16.748Z,89.4
2018-04-25T03:26:17.014Z,89.2
2018-04-25T03:27:17.282Z,89.2
2018-04-25T03:28:16.629Z,89.3
2018-04-25T03:29:16.884Z,89.5
2018-04-25T03:30:17.159Z,89.7
2018-04-25T03:31:17.196Z,89.4
2018-04-25T03:32:16.458Z,89.5
2018-04-25T03:33:16.722Z,89.4
2018-04-25T03:34:16.978Z,89.8
2018-04-25T03:35:17.244Z,89.7
2018-04-25T03:36:16.506Z,89.7
2018-04-25T03:37:16.773Z,89.7
2018-04-25T03:38:17.035Z,89.3
2018-04-25T03:39:16.298Z,89.5
2018-04-25T03:40:16.568Z,89.5
2018-04-25T03:41:16.610Z,89.8
2018-04-25T03:42:16.875Z,89.3
2018-04-25T03:43:17.140Z,89.5
2018-04-25T03:44:16.405Z,89.6
2018-04-25T03:45:16.681Z,89.0
2018-04-25T03:46:16.945Z,89.2
2018-04-25T03:47:17.205Z,88.8
2018-04-25T03:48:16.469Z,89.0
2018-04-25T03:49:16.729Z,89.1
2018-04-25T03:50:16.996Z,89.3
2018-04-25T03:51:17.054Z,88.8
2018-04-25T03:52:16.316Z,88.8
2018-04-25T03:53:16.575Z,89.2
2018-04-25T03:54:16.839Z,88.9
2018-04-25T03:55:17.100Z,88.8
2018-04-25T03:56:16.358Z,89.0
2018-04-25T03:57:16.620Z,89.0
2018-04-25T03:58:16.879Z,89.1
2018-04-25T03:59:17.143Z,89.3
2018-04-25T04:00:16.412Z,89.5
2018-04-25T04:01:16.465Z,89.5
2018-04-25T04:02:16.724Z,89.5
2018-04-25T04:03:16.989Z,89.1
2018-04-25T04:04:17.244Z,89.1
2018-04-25T04:05:16.520Z,89.5
2018-04-25T04:06:16.775Z,89.2
2018-04-25T04:07:17.039Z,89.3
2018-04-25T04:08:16.297Z,89.0
2018-04-25T04:09:16.560Z,89.0
2018-04-25T04:10:16.837Z,89.2
2018-04-25T04:11:16.865Z,89.2
2018-04-25T04:12:17.144Z,89.4
2018-04-25T04:13:16.406Z,89.5
2018-04-25T04:14:16.680Z,89.5
2018-04-25T04:15:16.945Z,89.2
2018-04-25T04:16:17.214Z,89.2
2018-04-25T04:17:16.474Z,89.2
2018-04-25T04:18:16.753Z,89.2
2018-04-25T04:19:17.017Z,90.3
2018-04-25T04:20:17.305Z,90.5
2018-04-25T04:21:16.322Z,90.8
2018-04-25T04:22:16.593Z,91.0
2018-04-25T04:23:16.857Z,90.3
2018-04-25T04:24:17.135Z,90.8
2018-04-25T04:25:16.408Z,90.6
2018-04-25T04:26:16.686Z,90.3
2018-04-25T04:27:16.941Z,90.5
2018-04-25T04:28:17.215Z,90.2
2018-04-25T04:29:16.474Z,90.2
2018-04-25T04:30:16.763Z,90.5
2018-04-25T04:31:16.777Z,90.7
2018-04-25T04:32:17.042Z,90.8
2018-04-25T04:33:16.307Z,90.8
2018-04-25T04:34:16.595Z,90.7
2018-04-25T04:35:16.865Z,90.7
2018-04-25T04:36:17.128Z,90.7
2018-04-25T04:37:16.390Z,90.7
2018-04-25T04:38:16.668Z,90.6
2018-04-25T04:39:16.930Z,90.6
2018-04-25T04:40:17.199Z,90.5
2018-04-25T04:41:17.244Z,90.1
2018-04-25T04:42:16.508Z,89.9
2018-04-25T04:43:16.965Z,89.5
2018-04-25T04:44:17.234Z,89.7
2018-04-25T04:45:16.506Z,89.4
2018-04-25T04:46:16.767Z,88.4
2018-04-25T04:47:17.034Z,88.3
2018-04-25T04:48:16.297Z,88.8
2018-04-25T04:49:16.550Z,89.3
2018-04-25T04:50:16.815Z,89.3
2018-04-25T04:51:16.879Z,89.3
2018-04-25T04:52:17.149Z,89.4
2018-04-25T04:53:16.407Z,89.4
2018-04-25T04:54:16.668Z,89.3
2018-04-25T04:55:16.928Z,89.0
2018-04-25T04:56:17.194Z,89.2
2018-04-25T04:57:16.457Z,89.2
2018-04-25T04:58:16.717Z,89.2
2018-04-25T04:59:16.977Z,89.2
2018-04-25T05:00:17.240Z,89.3
2018-04-25T05:01:16.286Z,89.3
2018-04-25T05:02:16.545Z,89.2
2018-04-25T05:03:16.802Z,88.2
2018-04-25T05:04:17.070Z,88.1
2018-04-25T05:05:16.346Z,87.8
2018-04-25T05:06:16.625Z,87.2
2018-04-25T05:07:16.891Z,86.8
2018-04-25T05:08:17.156Z,86.6
2018-04-25T05:09:16.417Z,86.9
2018-04-25T05:10:16.683Z,86.8
2018-04-25T05:11:16.726Z,86.9
2018-04-25T05:12:17.192Z,87.0
2018-04-25T05:13:16.471Z,87.0
2018-04-25T05:14:16.730Z,87.1
2018-04-25T05:15:16.984Z,86.8
2018-04-25T05:16:17.245Z,86.8
2018-04-25T05:17:16.508Z,88.4
2018-04-25T05:18:16.773Z,88.2
2018-04-25T05:19:17.042Z,87.5
2018-04-25T05:20:16.312Z,87.2
2018-04-25T05:21:16.354Z,87.7
2018-04-25T05:22:16.613Z,87.2
2018-04-25T05:23:16.880Z,88.0
2018-04-25T05:24:17.316Z,87.9
2018-04-25T05:25:16.587Z,88.0
2018-04-25T05:26:16.848Z,88.3
2018-04-25T05:27:17.108Z,87.9
2018-04-25T05:28:16.369Z,87.8
2018-04-25T05:29:16.641Z,88.2
2018-04-25T05:30:16.921Z,88.3
2018-04-25T05:31:16.931Z,88.0
2018-04-25T05:32:17.198Z,88.0
2018-04-25T05:33:16.460Z,88.1
2018-04-25T05:34:16.718Z,88.0
2018-04-25T05:35:16.995Z,87.0
2018-04-25T05:36:17.274Z,87.0
2018-04-25T05:37:16.532Z,87.0
2018-04-25T05:38:16.791Z,87.1
2018-04-25T05:39:17.062Z,87.2
2018-04-25T05:40:16.338Z,87.3
2018-04-25T05:41:16.384Z,87.2
2018-04-25T05:42:16.653Z,87.0
2018-04-25T05:43:16.920Z,86.9
2018-04-25T05:44:17.195Z,86.8
2018-04-25T05:45:16.532Z,86.9
2018-04-25T05:46:16.787Z,86.8
2018-04-25T05:47:17.054Z,86.6
2018-04-25T05:48:16.317Z,86.5
2018-04-25T05:49:16.585Z,86.4
2018-04-25T05:50:16.850Z,86.1
2018-04-25T05:51:16.887Z,85.5
2018-04-25T05:52:17.151Z,85.2
2018-04-25T05:53:16.417Z,85.0
2018-04-25T05:54:16.677Z,85.0
2018-04-25T05:55:16.938Z,84.8
2018-04-25T05:56:17.199Z,84.8
2018-04-25T05:57:16.463Z,84.8
2018-04-25T05:58:16.728Z,84.3
2018-04-25T05:59:16.993Z,84.2
2018-04-25T06:00:17.265Z,84.5
2018-04-25T06:01:16.294Z,84.7
2018-04-25T06:02:16.564Z,84.5
2018-04-25T06:03:16.820Z,84.4
2018-04-25T06:04:17.097Z,83.6
2018-04-25T06:05:16.382Z,83.1
2018-04-25T06:06:16.642Z,82.9
2018-04-25T06:07:16.907Z,82.8
2018-04-25T06:08:17.173Z,82.2
2018-04-25T06:09:16.440Z,81.8
2018-04-25T06:10:16.713Z,81.7
2018-04-25T06:11:16.761Z,80.3
2018-04-25T06:12:17.114Z,80.0
2018-04-25T06:13:16.389Z,80.5
2018-04-25T06:14:16.657Z,80.2
2018-04-25T06:15:16.926Z,79.8
2018-04-25T06:16:17.266Z,79.0
2018-04-25T06:17:16.525Z,79.0
2018-04-25T06:18:16.793Z,78.8
2018-04-25T06:19:17.054Z,78.7
2018-04-25T06:20:16.413Z,78.2
2018-04-25T06:21:16.367Z,77.8
2018-04-25T06:22:16.639Z,77.3
2018-04-25T06:23:16.896Z,76.8
2018-04-25T06:24:17.164Z,75.8
2018-04-25T06:25:16.437Z,75.4
2018-04-25T06:26:16.701Z,75.0
2018-04-25T06:27:16.955Z,74.1
2018-04-25T06:28:17.299Z,73.2
2018-04-25T06:29:16.586Z,72.6
2018-04-25T06:30:16.865Z,72.0
2018-04-25T06:31:16.908Z,70.7
2018-04-25T06:32:17.172Z,70.5
2018-04-25T06:33:16.442Z,70.5
2018-04-25T06:34:16.709Z,69.8
2018-04-25T06:35:16.965Z,69.2
2018-04-25T06:36:17.225Z,68.8
2018-04-25T06:37:16.487Z,69.2
2018-04-25T06:38:16.748Z,69.4
2018-04-25T06:39:17.018Z,68.5
2018-04-25T06:40:17.288Z,68.1
2018-04-25T06:41:16.343Z,67.7
2018-04-25T06:42:16.618Z,67.4
2018-04-25T06:43:16.877Z,67.3
2018-04-25T06:44:17.136Z,66.2
2018-04-25T06:45:16.409Z,65.2
2018-04-25T06:46:16.670Z,64.4
2018-04-25T06:47:16.934Z,63.5
2018-04-25T06:48:17.197Z,62.5
2018-04-25T06:49:16.465Z,61.8
2018-04-25T06:50:16.730Z,61.0
2018-04-25T06:51:16.764Z,60.8
2018-04-25T06:52:17.024Z,60.0
2018-04-25T06:53:16.284Z,59.4
2018-04-25T06:54:16.555Z,58.6
2018-04-25T06:55:17.280Z,57.0
2018-04-25T06:56:16.539Z,56.2
2018-04-25T06:57:16.810Z,56.0
2018-04-25T06:58:17.073Z,55.2
2018-04-25T06:59:16.335Z,54.3
2018-04-25T07:00:16.607Z,54.5
2018-04-25T07:01:16.660Z,54.6
2018-04-25T07:02:16.924Z,54.4
2018-04-25T07:03:17.188Z,53.9
2018-04-25T07:04:16.448Z,54.0
2018-04-25T07:05:16.716Z,53.6
2018-04-25T07:06:16.990Z,53.0
2018-04-25T07:07:17.239Z,52.8
2018-04-25T07:08:16.759Z,52.1
2018-04-25T07:09:17.032Z,51.8
2018-04-25T07:10:16.681Z,52.1
2018-04-25T07:11:16.616Z,51.4
2018-04-25T07:12:16.879Z,50.5
2018-04-25T07:13:17.281Z,50.1
2018-04-25T07:14:16.570Z,49.6
2018-04-25T07:15:16.835Z,49.6
2018-04-25T07:16:17.103Z,49.5
2018-04-25T07:17:16.361Z,49.9
2018-04-25T07:18:16.633Z,50.0
2018-04-25T07:19:16.898Z,49.4
2018-04-25T07:20:17.187Z,49.8
2018-04-25T07:21:17.208Z,49.8
2018-04-25T07:22:16.465Z,50.0
2018-04-25T07:23:16.734Z,49.5
2018-04-25T07:24:17.002Z,49.4
2018-04-25T07:25:17.639Z,48.5
2018-04-25T07:26:16.897Z,48.4
2018-04-25T07:27:17.162Z,48.0
2018-04-25T07:28:16.426Z,47.8
2018-04-25T07:29:16.682Z,46.9
2018-04-25T07:30:16.958Z,47.0
2018-04-25T07:31:17.013Z,46.8
2018-04-25T07:32:16.284Z,46.1
2018-04-25T07:33:16.555Z,46.4
2018-04-25T07:34:16.821Z,46.0
2018-04-25T07:35:17.188Z,45.8
2018-04-25T07:36:16.536Z,45.4
2018-04-25T07:37:16.799Z,45.3
2018-04-25T07:38:17.054Z,45.4
2018-04-25T07:39:16.309Z,45.4
2018-04-25T07:40:16.582Z,45.5
2018-04-25T07:41:16.617Z,45.1
2018-04-25T07:42:16.883Z,44.5
2018-04-25T07:43:17.146Z,44.2
2018-04-25T07:44:16.400Z,45.1
2018-04-25T07:45:16.666Z,45.6
2018-04-25T07:46:16.925Z,45.4
2018-04-25T07:47:17.198Z,44.7
2018-04-25T07:48:16.456Z,44.5
2018-04-25T07:49:16.722Z,44.2
2018-04-25T07:50:16.995Z,44.3
2018-04-25T07:51:17.038Z,44.0
2018-04-25T07:52:16.378Z,44.1
2018-04-25T07:53:16.734Z,44.0
2018-04-25T07:54:17.004Z,44.0
2018-04-25T07:55:17.270Z,43.8
2018-04-25T07:56:16.529Z,42.8
2018-04-25T07:57:16.790Z,41.4
2018-04-25T07:58:17.044Z,41.5
2018-04-25T07:59:16.305Z,41.5
2018-04-25T08:00:16.592Z,41.6
2018-04-25T08:01:16.613Z,41.2
2018-04-25T08:02:16.885Z,41.0
2018-04-25T08:03:17.161Z,40.4
2018-04-25T08:04:16.417Z,40.3
2018-04-25T08:05:16.694Z,40.4
2018-04-25T08:06:16.963Z,39.5
2018-04-25T08:07:17.255Z,39.0
2018-04-25T08:08:16.514Z,38.3
2018-04-25T08:09:16.770Z,38.4
2018-04-25T08:10:17.043Z,38.8
2018-04-25T08:11:17.091Z,37.6
2018-04-25T08:12:16.775Z,37.8
2018-04-25T08:13:17.646Z,36.6
2018-04-25T08:14:16.912Z,36.6
2018-04-25T08:15:17.178Z,37.4
2018-04-25T08:16:16.431Z,36.0
2018-04-25T08:17:16.694Z,36.0
2018-04-25T08:18:16.957Z,36.5
2018-04-25T08:19:17.231Z,37.3
2018-04-25T08:20:16.515Z,37.6
2018-04-25T08:21:16.558Z,38.0
2018-04-25T08:22:16.811Z,38.1
2018-04-25T08:23:17.080Z,38.5
2018-04-25T08:24:16.343Z,38.6
2018-04-25T08:25:16.615Z,38.5
2018-04-25T08:26:16.881Z,38.9
2018-04-25T08:27:17.146Z,38.6
2018-04-25T08:28:16.410Z,39.1
2018-04-25T08:29:16.688Z,38.5
2018-04-25T08:30:16.959Z,38.7
2018-04-25T08:31:17.012Z,38.5
2018-04-25T08:32:17.275Z,38.8
2018-04-25T08:33:16.538Z,38.4
2018-04-25T08:34:16.962Z,39.0
2018-04-25T08:35:17.235Z,38.6
2018-04-25T08:36:16.500Z,38.5
2018-04-25T08:37:16.758Z,38.7
2018-04-25T08:38:17.013Z,39.5
2018-04-25T08:39:17.498Z,39.2
2018-04-25T08:40:16.777Z,37.6
2018-04-25T08:41:16.800Z,37.9
2018-04-25T08:42:17.074Z,37.4
2018-04-25T08:43:16.333Z,38.0
2018-04-25T08:44:16.596Z,38.0
2018-04-25T08:45:16.964Z,36.1
2018-04-25T08:46:17.228Z,36.6
2018-04-25T08:47:16.498Z,36.0
2018-04-25T08:48:16.761Z,36.1
2018-04-25T08:49:17.017Z,34.8
2018-04-25T08:50:17.285Z,35.0
2018-04-25T08:51:16.344Z,34.9
2018-04-25T08:52:16.611Z,35.2
2018-04-25T08:53:16.878Z,34.8
2018-04-25T08:54:17.151Z,34.9
2018-04-25T08:55:16.415Z,34.0
2018-04-25T08:56:16.675Z,34.1
2018-04-25T08:57:16.948Z,34.1
2018-04-25T08:58:17.210Z,35.2
2018-04-25T08:59:16.561Z,35.5
2018-04-25T09:00:16.839Z,36.0
2018-04-25T09:01:16.873Z,36.4
2018-04-25T09:02:17.150Z,35.4
2018-04-25T09:03:16.418Z,34.4
2018-04-25T09:04:16.679Z,33.9
2018-04-25T09:05:16.964Z,33.6
2018-04-25T09:06:17.221Z,33.5
2018-04-25T09:07:16.479Z,33.5
2018-04-25T09:08:16.748Z,33.6
2018-04-25T09:09:17.020Z,35.0
2018-04-25T09:10:17.321Z,34.8
2018-04-25T09:11:16.344Z,34.9
2018-04-25T09:12:16.598Z,35.1
2018-04-25T09:13:17.024Z,35.6
2018-04-25T09:14:16.298Z,35.6
2018-04-25T09:15:16.565Z,36.1
2018-04-25T09:16:16.840Z,35.6
2018-04-25T09:17:17.102Z,36.0
2018-04-25T09:18:16.355Z,36.0
2018-04-25T09:19:16.620Z,36.0
2018-04-25T09:20:17.036Z,35.0
2018-04-25T09:21:16.958Z,34.4
2018-04-25T09:22:17.241Z,34.9
2018-04-25T09:23:16.509Z,33.5
2018-04-25T09:24:16.768Z,32.8
2018-04-25T09:25:17.038Z,33.1
2018-04-25T09:26:16.297Z,32.5
2018-04-25T09:27:16.554Z,32.9
2018-04-25T09:28:16.814Z,32.6
2018-04-25T09:29:17.071Z,32.0
2018-04-25T09:30:16.339Z,31.8
2018-04-25T09:31:16.376Z,31.2
2018-04-25T09:32:16.637Z,31.9
2018-04-25T09:33:16.899Z,32.0
2018-04-25T09:34:17.168Z,31.1
2018-04-25T09:35:16.433Z,31.3
2018-04-25T09:36:16.691Z,31.7
2018-04-25T09:37:16.953Z,31.9
2018-04-25T09:38:17.225Z,32.5
2018-04-25T09:39:16.492Z,33.2
2018-04-25T09:40:16.768Z,33.4
2018-04-25T09:41:16.814Z,34.2
2018-04-25T09:42:17.081Z,33.8
2018-04-25T09:43:16.341Z,32.9
2018-04-25T09:44:16.598Z,34.8
2018-04-25T09:45:16.868Z,34.4
2018-04-25T09:46:17.127Z,35.0
2018-04-25T09:47:16.401Z,35.5
2018-04-25T09:48:16.661Z,35.2
2018-04-25T09:49:16.919Z,35.4
2018-04-25T09:50:17.202Z,35.6
2018-04-25T09:51:17.238Z,35.1
2018-04-25T09:52:16.499Z,34.1
2018-04-25T09:53:16.791Z,35.0
2018-04-25T09:54:17.053Z,35.0
2018-04-25T09:55:16.311Z,35.1
2018-04-25T09:56:16.575Z,35.1
2018-04-25T09:57:17.116Z,34.4
2018-04-25T09:58:16.372Z,34.1
2018-04-25T09:59:16.635Z,33.3
2018-04-25T10:00:16.899Z,32.9
2018-04-25T10:01:16.946Z,31.8
2018-04-25T10:02:17.246Z,32.0
2018-04-25T10:03:16.511Z,31.4
2018-04-25T10:04:16.779Z,31.4
2018-04-25T10:05:17.042Z,32.7
2018-04-25T10:06:16.301Z,32.2
2018-04-25T10:07:16.564Z,32.8
2018-04-25T10:08:17.134Z,32.6
2018-04-25T10:09:16.396Z,32.6
2018-04-25T10:10:16.664Z,31.9
2018-04-25T10:11:16.729Z,32.0
2018-04-25T10:12:16.984Z,32.9
2018-04-25T10:13:17.269Z,33.7
2018-04-25T10:14:16.541Z,33.8
2018-04-25T10:15:16.957Z,33.8
2018-04-25T10:16:17.235Z,33.9
2018-04-25T10:17:16.679Z,33.7
2018-04-25T10:18:16.954Z,34.0
2018-04-25T10:19:17.233Z,34.5
2018-04-25T10:20:16.493Z,35.0
2018-04-25T10:21:16.537Z,35.1
2018-04-25T10:22:16.802Z,35.5
2018-04-25T10:23:17.077Z,35.5
2018-04-25T10:24:16.330Z,35.6
2018-04-25T10:25:16.650Z,35.4
2018-04-25T10:26:16.910Z,34.5
2018-04-25T10:27:17.183Z,34.6
2018-04-25T10:28:16.445Z,35.0
2018-04-25T10:29:16.714Z,35.4
2018-04-25T10:30:16.972Z,35.5
2018-04-25T10:31:17.017Z,35.6
2018-04-25T10:32:17.285Z,35.2
2018-04-25T10:33:16.542Z,34.1
2018-04-25T10:34:16.815Z,34.4
2018-04-25T10:35:17.077Z,34.5
2018-04-25T10:36:16.342Z,34.4
2018-04-25T10:37:16.601Z,34.0
2018-04-25T10:38:16.864Z,34.0
2018-04-25T10:39:17.217Z,34.4
2018-04-25T10:40:16.474Z,34.0
2018-04-25T10:41:16.516Z,34.0
2018-04-25T10:42:16.783Z,33.1
2018-04-25T10:43:17.045Z,32.4
2018-04-25T10:44:16.493Z,32.2
2018-04-25T10:45:16.847Z,31.7
2018-04-25T10:46:17.114Z,32.0
2018-04-25T10:47:16.380Z,31.2
2018-04-25T10:48:16.637Z,30.5
2018-04-25T10:49:16.897Z,30.9
2018-04-25T10:50:17.184Z,30.4
2018-04-25T10:51:17.218Z,30.7
2018-04-25T10:52:16.483Z,30.5
2018-04-25T10:53:16.745Z,29.7
2018-04-25T10:54:17.013Z,30.2
2018-04-25T10:55:17.437Z,29.6
2018-04-25T10:56:16.717Z,29.2
2018-04-25T10:57:16.975Z,29.7
2018-04-25T10:58:17.235Z,29.9
2018-04-25T10:59:16.492Z,30.2
2018-04-25T11:00:16.765Z,29.6
2018-04-25T11:01:16.809Z,30.0
2018-04-25T11:02:17.070Z,28.9
2018-04-25T11:03:16.333Z,29.1
2018-04-25T11:04:16.601Z,28.2
2018-04-25T11:05:16.859Z,29.6
2018-04-25T11:06:17.111Z,29.1
2018-04-25T11:07:16.371Z,27.6
2018-04-25T11:08:16.779Z,28.6
2018-04-25T11:09:17.048Z,29.4
2018-04-25T11:10:16.315Z,30.0
2018-04-25T11:11:16.368Z,29.6
2018-04-25T11:12:16.633Z,29.3
2018-04-25T11:13:16.886Z,30.1
2018-04-25T11:14:17.156Z,30.3
2018-04-25T11:15:16.429Z,30.1
2018-04-25T11:16:16.703Z,30.1
2018-04-25T11:17:16.961Z,30.2
2018-04-25T11:18:17.216Z,29.8
2018-04-25T11:19:16.480Z,28.9
2018-04-25T11:20:16.852Z,29.8
2018-04-25T11:21:16.817Z,30.2
2018-04-25T11:22:17.079Z,31.0
2018-04-25T11:23:16.342Z,31.6
2018-04-25T11:24:16.606Z,31.1
2018-04-25T11:25:16.864Z,29.7
2018-04-25T11:26:17.144Z,30.6
2018-04-25T11:27:16.412Z,30.2
2018-04-25T11:28:16.674Z,29.8
2018-04-25T11:29:16.936Z,29.4
2018-04-25T11:30:17.212Z,29.1
2018-04-25T11:31:17.258Z,29.4
2018-04-25T11:32:16.535Z,29.6
2018-04-25T11:33:16.794Z,29.9
2018-04-25T11:34:17.056Z,29.9
2018-04-25T11:35:16.325Z,29.9
2018-04-25T11:36:16.624Z,29.4
2018-04-25T11:37:16.887Z,29.6
2018-04-25T11:38:17.154Z,29.6
2018-04-25T11:39:16.417Z,29.5
2018-04-25T11:40:16.683Z,29.6
2018-04-25T11:41:16.729Z,29.6
2018-04-25T11:42:16.985Z,30.1
2018-04-25T11:43:17.249Z,29.4
2018-04-25T11:44:16.516Z,29.9
2018-04-25T11:45:16.783Z,29.6
2018-04-25T11:46:17.045Z,30.0
2018-04-25T11:47:16.421Z,29.7
2018-04-25T11:48:16.708Z,29.6
2018-04-25T11:49:16.969Z,29.4
2018-04-25T11:50:17.239Z,29.6
2018-04-25T11:51:16.295Z,28.9
2018-04-25T11:52:16.567Z,29.6
2018-04-25T11:53:16.839Z,28.9
2018-04-25T11:54:17.102Z,29.1
2018-04-25T11:55:16.362Z,28.6
2018-04-25T11:56:16.621Z,28.7
2018-04-25T11:57:16.887Z,28.5
2018-04-25T11:58:17.151Z,28.8
2018-04-25T11:59:16.413Z,28.6
2018-04-25T12:00:16.687Z,28.6
2018-04-25T12:01:16.744Z,28.4
2018-04-25T12:02:17.005Z,28.6
2018-04-25T12:03:17.257Z,28.4
2018-04-25T12:04:16.514Z,28.0
2018-04-25T12:05:16.788Z,27.9
2018-04-25T12:06:17.053Z,27.9
2018-04-25T12:07:16.303Z,27.7
2018-04-25T12:08:16.564Z,27.7
2018-04-25T12:09:16.826Z,27.9
2018-04-25T12:10:17.100Z,27.8
2018-04-25T12:11:17.133Z,27.8
2018-04-25T12:12:16.508Z,27.7
2018-04-25T12:13:16.892Z,27.8
2018-04-25T12:14:17.185Z,27.2
2018-04-25T12:15:16.445Z,27.2
2018-04-25T12:16:16.720Z,27.6
2018-04-25T12:17:16.980Z,27.4
2018-04-25T12:18:17.239Z,27.2
2018-04-25T12:19:16.502Z,28.2
2018-04-25T12:20:16.762Z,28.2
2018-04-25T12:21:16.805Z,28.6
2018-04-25T12:22:17.065Z,28.6
2018-04-25T12:23:16.329Z,28.7
2018-04-25T12:24:16.660Z,28.4
2018-04-25T12:25:16.928Z,28.7
2018-04-25T12:26:17.189Z,28.7
2018-04-25T12:27:16.446Z,28.8
2018-04-25T12:28:16.718Z,28.6
2018-04-25T12:29:16.976Z,28.7
2018-04-25T12:30:17.230Z,28.9
2018-04-25T12:31:16.294Z,29.5
2018-04-25T12:32:16.556Z,29.1
2018-04-25T12:33:16.816Z,29.8
2018-04-25T12:34:17.084Z,29.9
2018-04-25T12:35:16.350Z,29.4
2018-04-25T12:36:16.610Z,29.5
2018-04-25T12:37:16.865Z,29.4
2018-04-25T12:38:17.135Z,29.2
2018-04-25T12:39:16.399Z,29.2
2018-04-25T12:40:16.670Z,28.9
2018-04-25T12:41:16.723Z,29.2
2018-04-25T12:42:16.985Z,28.9
2018-04-25T12:43:17.344Z,29.2
2018-04-25T12:44:16.602Z,29.4
2018-04-25T12:45:16.859Z,29.4
2018-04-25T12:46:17.125Z,29.2
2018-04-25T12:47:16.615Z,29.3
2018-04-25T12:48:16.888Z,29.1
2018-04-25T12:49:17.142Z,29.7
2018-04-25T12:50:16.400Z,29.9
2018-04-25T12:51:16.454Z,29.8
2018-04-25T12:52:16.716Z,29.9
2018-04-25T12:53:16.982Z,30.1
2018-04-25T12:54:17.249Z,30.3
2018-04-25T12:55:16.505Z,30.4
2018-04-25T12:56:16.769Z,30.8
2018-04-25T12:57:17.026Z,30.9
2018-04-25T12:58:17.299Z,31.1
2018-04-25T12:59:16.563Z,31.2
2018-04-25T13:00:16.829Z,31.2
2018-04-25T13:01:16.895Z,31.1
2018-04-25T13:02:17.153Z,31.6
2018-04-25T13:03:16.410Z,31.8
2018-04-25T13:04:16.676Z,32.0
2018-04-25T13:05:16.951Z,32.0
2018-04-25T13:06:17.216Z,31.9
2018-04-25T13:07:16.475Z,31.9
2018-04-25T13:08:16.729Z,32.0
2018-04-25T13:09:16.996Z,32.2
2018-04-25T13:10:17.261Z,32.5
2018-04-25T13:11:16.302Z,32.5
2018-04-25T13:12:16.563Z,32.6
2018-04-25T13:13:16.825Z,32.5
2018-04-25T13:14:17.094Z,32.5
2018-04-25T13:15:16.359Z,32.8
2018-04-25T13:16:16.622Z,32.5
2018-04-25T13:17:16.874Z,32.8
2018-04-25T13:18:17.136Z,32.6